sensor_id;sensor_type;location;lat;lon;timestamp;pressure;altitude;pressure_sealevel;temperature;humidity
63339;BME280;47485;51.378;-1.342;2022-10-31T00:01:49;100216.82;;;12.69;35.33
63339;BME280;47485;51.378;-1.342;2022-10-31T00:04:15;100212.87;;;10.75;37.54
63339;BME280;47485;51.378;-1.342;2022-10-31T00:06:42;100215.21;;;12.88;35.53
63339;BME280;47485;51.378;-1.342;2022-10-31T00:09:09;100212.63;;;11.08;35.83
63339;BME280;47485;51.378;-1.342;2022-10-31T00:11:36;100214.19;;;12.47;36.97
63339;BME280;47485;51.378;-1.342;2022-10-31T00:14:03;100213.16;;;12.02;36.89
63339;BME280;47485;51.378;-1.342;2022-10-31T00:16:30;100214.84;;;11.64;35.85
63339;BME280;47485;51.378;-1.342;2022-10-31T00:19:00;100215.10;;;10.88;37.46
63339;BME280;47485;51.378;-1.342;2022-10-31T00:21:28;100215.24;;;12.50;35.01
63339;BME280;47485;51.378;-1.342;2022-10-31T00:23:55;100216.75;;;11.37;36.67
63339;BME280;47485;51.378;-1.342;2022-10-31T00:26:23;100219.67;;;10.24;36.65
63339;BME280;47485;51.378;-1.342;2022-10-31T00:28:50;100219.11;;;10.89;36.89
63339;BME280;47485;51.378;-1.342;2022-10-31T00:31:16;100218.84;;;11.39;35.58
63339;BME280;47485;51.378;-1.342;2022-10-31T00:33:45;100219.61;;;11.88;35.30
63339;BME280;47485;51.378;-1.342;2022-10-31T00:36:13;100217.31;;;9.85;36.92
63339;BME280;47485;51.378;-1.342;2022-10-31T00:38:41;100219.82;;;12.07;35.45
63339;BME280;47485;51.378;-1.342;2022-10-31T00:41:08;100220.90;;;11.18;35.40
63339;BME280;47485;51.378;-1.342;2022-10-31T00:43:35;100218.57;;;12.31;35.04
63339;BME280;47485;51.378;-1.342;2022-10-31T00:46:02;100214.71;;;11.21;34.76
63339;BME280;47485;51.378;-1.342;2022-10-31T00:48:29;100207.38;;;12.44;32.68
63339;BME280;47485;51.378;-1.342;2022-10-31T00:50:56;100202.48;;;11.34;33.47
63339;BME280;47485;51.378;-1.342;2022-10-31T00:53:23;100202.07;;;12.20;33.47
63339;BME280;47485;51.378;-1.342;2022-10-31T00:55:50;100198.76;;;14.57;33.20
63339;BME280;47485;51.378;-1.342;2022-10-31T00:58:17;100197.06;;;12.13;33.78
63339;BME280;47485;51.378;-1.342;2022-10-31T01:00:43;100198.13;;;13.26;33.06
63339;BME280;47485;51.378;-1.342;2022-10-31T01:03:10;100200.19;;;11.46;33.72
63339;BME280;47485;51.378;-1.342;2022-10-31T01:05:37;100196.67;;;11.10;33.24
63339;BME280;47485;51.378;-1.342;2022-10-31T01:08:04;100192.98;;;11.97;33.30
63339;BME280;47485;51.378;-1.342;2022-10-31T01:10:30;100191.03;;;12.88;32.52
63339;BME280;47485;51.378;-1.342;2022-10-31T01:12:57;100195.59;;;10.40;33.95
63339;BME280;47485;51.378;-1.342;2022-10-31T01:15:24;100192.44;;;12.42;32.24
63339;BME280;47485;51.378;-1.342;2022-10-31T01:17:51;100194.75;;;12.46;31.68
63339;BME280;47485;51.378;-1.342;2022-10-31T01:20:17;100204.45;;;10.18;34.01
63339;BME280;47485;51.378;-1.342;2022-10-31T01:22:44;100202.16;;;12.22;33.49
63339;BME280;47485;51.378;-1.342;2022-10-31T01:25:11;100202.95;;;9.21;35.90
63339;BME280;47485;51.378;-1.342;2022-10-31T01:27:38;100196.48;;;11.12;33.79
63339;BME280;47485;51.378;-1.342;2022-10-31T01:30:06;100197.04;;;11.41;33.37
63339;BME280;47485;51.378;-1.342;2022-10-31T01:32:32;100195.68;;;12.73;32.79
63339;BME280;47485;51.378;-1.342;2022-10-31T01:34:59;100198.85;;;9.33;35.38
63339;BME280;47485;51.378;-1.342;2022-10-31T01:37:26;100200.70;;;11.34;34.61
63339;BME280;47485;51.378;-1.342;2022-10-31T01:39:52;100195.56;;;12.24;32.98
63339;BME280;47485;51.378;-1.342;2022-10-31T01:42:22;100192.93;;;12.14;32.98
63339;BME280;47485;51.378;-1.342;2022-10-31T01:44:53;100194.19;;;14.51;31.22
63339;BME280;47485;51.378;-1.342;2022-10-31T01:47:31;100187.44;;;12.56;32.51
63339;BME280;47485;51.378;-1.342;2022-10-31T01:50:01;100187.45;;;10.72;33.71
63339;BME280;47485;51.378;-1.342;2022-10-31T01:52:32;100184.89;;;12.33;33.19
63339;BME280;47485;51.378;-1.342;2022-10-31T01:55:03;100181.82;;;11.55;33.65
63339;BME280;47485;51.378;-1.342;2022-10-31T01:57:32;100177.19;;;13.47;32.53
63339;BME280;47485;51.378;-1.342;2022-10-31T02:00:05;100184.96;;;11.18;34.70
63339;BME280;47485;51.378;-1.342;2022-10-31T02:02:32;100182.03;;;10.64;34.13
63339;BME280;47485;51.378;-1.342;2022-10-31T02:05:02;100174.76;;;12.37;32.33
63339;BME280;47485;51.378;-1.342;2022-10-31T02:07:36;100173.66;;;11.53;33.42
63339;BME280;47485;51.378;-1.342;2022-10-31T02:10:05;100175.64;;;10.23;34.53
63339;BME280;47485;51.378;-1.342;2022-10-31T02:12:33;100173.72;;;11.07;33.96
63339;BME280;47485;51.378;-1.342;2022-10-31T02:15:00;100172.22;;;10.78;33.60
63339;BME280;47485;51.378;-1.342;2022-10-31T02:17:29;100176.36;;;12.66;32.06
63339;BME280;47485;51.378;-1.342;2022-10-31T02:20:04;100174.41;;;12.75;32.44
63339;BME280;47485;51.378;-1.342;2022-10-31T02:22:41;100176.60;;;11.94;33.27
63339;BME280;47485;51.378;-1.342;2022-10-31T02:25:42;100171.90;;;12.70;32.38
63339;BME280;47485;51.378;-1.342;2022-10-31T02:28:29;100170.85;;;14.15;31.27
63339;BME280;47485;51.378;-1.342;2022-10-31T02:31:09;100172.17;;;11.66;33.26
63339;BME280;47485;51.378;-1.342;2022-10-31T02:33:44;100170.78;;;12.18;34.10
63339;BME280;47485;51.378;-1.342;2022-10-31T02:36:20;100169.51;;;12.36;33.48
63339;BME280;47485;51.378;-1.342;2022-10-31T02:38:52;100177.89;;;9.74;36.54
63339;BME280;47485;51.378;-1.342;2022-10-31T02:41:35;100178.51;;;11.59;36.05
63339;BME280;47485;51.378;-1.342;2022-10-31T02:44:09;100173.97;;;11.70;34.80
63339;BME280;47485;51.378;-1.342;2022-10-31T02:46:45;100178.09;;;11.32;35.10
63339;BME280;47485;51.378;-1.342;2022-10-31T02:49:20;100180.86;;;11.59;35.40
63339;BME280;47485;51.378;-1.342;2022-10-31T02:51:48;100176.18;;;11.28;34.90
63339;BME280;47485;51.378;-1.342;2022-10-31T02:54:18;100172.27;;;12.00;34.18
63339;BME280;47485;51.378;-1.342;2022-10-31T02:56:46;100168.33;;;10.53;35.14
63339;BME280;47485;51.378;-1.342;2022-10-31T02:59:14;100164.70;;;14.30;32.41
63339;BME280;47485;51.378;-1.342;2022-10-31T03:02:00;100164.90;;;9.72;35.55
63339;BME280;47485;51.378;-1.342;2022-10-31T03:04:42;100156.51;;;13.05;31.73
63339;BME280;47485;51.378;-1.342;2022-10-31T03:07:20;100158.56;;;12.94;32.38
63339;BME280;47485;51.378;-1.342;2022-10-31T03:09:59;100160.12;;;12.77;31.93
63339;BME280;47485;51.378;-1.342;2022-10-31T03:12:36;100154.73;;;11.41;32.16
63339;BME280;47485;51.378;-1.342;2022-10-31T03:15:13;100163.15;;;11.37;33.39
63339;BME280;47485;51.378;-1.342;2022-10-31T03:17:49;100166.92;;;12.53;32.94
63339;BME280;47485;51.378;-1.342;2022-10-31T03:20:19;100168.81;;;10.61;34.92
63339;BME280;47485;51.378;-1.342;2022-10-31T03:22:48;100166.65;;;9.45;35.10
63339;BME280;47485;51.378;-1.342;2022-10-31T03:25:15;100157.09;;;10.76;34.76
63339;BME280;47485;51.378;-1.342;2022-10-31T03:27:44;100157.18;;;12.17;33.82
63339;BME280;47485;51.378;-1.342;2022-10-31T03:30:13;100158.29;;;13.14;33.64
63339;BME280;47485;51.378;-1.342;2022-10-31T03:32:43;100159.09;;;11.43;36.01
63339;BME280;47485;51.378;-1.342;2022-10-31T03:35:13;100148.05;;;11.39;34.89
63339;BME280;47485;51.378;-1.342;2022-10-31T03:37:42;100146.02;;;10.56;35.69
63339;BME280;47485;51.378;-1.342;2022-10-31T03:40:10;100141.11;;;11.58;33.79
63339;BME280;47485;51.378;-1.342;2022-10-31T03:42:41;100139.16;;;12.65;32.87
63339;BME280;47485;51.378;-1.342;2022-10-31T03:45:13;100136.46;;;9.44;36.82
63339;BME280;47485;51.378;-1.342;2022-10-31T03:47:43;100135.59;;;10.37;35.49
63339;BME280;47485;51.378;-1.342;2022-10-31T03:50:14;100138.31;;;10.61;33.78
63339;BME280;47485;51.378;-1.342;2022-10-31T03:52:45;100140.70;;;10.27;34.43
63339;BME280;47485;51.378;-1.342;2022-10-31T03:55:19;100136.31;;;10.62;33.46
63339;BME280;47485;51.378;-1.342;2022-10-31T03:57:53;100131.10;;;13.21;31.62
63339;BME280;47485;51.378;-1.342;2022-10-31T04:00:22;100140.25;;;11.86;30.88
63339;BME280;47485;51.378;-1.342;2022-10-31T04:02:53;100152.12;;;13.66;30.48
63339;BME280;47485;51.378;-1.342;2022-10-31T04:05:22;100147.43;;;11.95;30.92
63339;BME280;47485;51.378;-1.342;2022-10-31T04:07:53;100145.14;;;12.54;30.44
63339;BME280;47485;51.378;-1.342;2022-10-31T04:10:23;100140.44;;;12.85;29.86
63339;BME280;47485;51.378;-1.342;2022-10-31T04:12:56;100145.53;;;12.75;29.52
63339;BME280;47485;51.378;-1.342;2022-10-31T04:15:26;100145.69;;;12.18;30.47
63339;BME280;47485;51.378;-1.342;2022-10-31T04:17:58;100139.87;;;12.98;29.45
63339;BME280;47485;51.378;-1.342;2022-10-31T04:20:34;100136.64;;;11.80;29.62
63339;BME280;47485;51.378;-1.342;2022-10-31T04:23:03;100134.02;;;13.89;29.53
63339;BME280;47485;51.378;-1.342;2022-10-31T04:25:29;100130.75;;;12.41;29.42
63339;BME280;47485;51.378;-1.342;2022-10-31T04:27:56;100131.77;;;11.14;30.29
63339;BME280;47485;51.378;-1.342;2022-10-31T04:30:23;100129.00;;;12.45;29.70
63339;BME280;47485;51.378;-1.342;2022-10-31T04:32:49;100127.92;;;12.37;30.55
63339;BME280;47485;51.378;-1.342;2022-10-31T04:35:16;100124.03;;;12.21;29.82
63339;BME280;47485;51.378;-1.342;2022-10-31T04:37:42;100118.57;;;13.38;29.76
63339;BME280;47485;51.378;-1.342;2022-10-31T04:40:11;100118.63;;;13.72;29.57
63339;BME280;47485;51.378;-1.342;2022-10-31T04:42:38;100117.26;;;13.05;30.00
63339;BME280;47485;51.378;-1.342;2022-10-31T04:45:06;100123.07;;;11.72;30.33
63339;BME280;47485;51.378;-1.342;2022-10-31T04:47:33;100123.33;;;12.13;29.15
63339;BME280;47485;51.378;-1.342;2022-10-31T04:50:01;100118.96;;;14.49;28.74
63339;BME280;47485;51.378;-1.342;2022-10-31T04:52:28;100120.73;;;14.53;28.79
63339;BME280;47485;51.378;-1.342;2022-10-31T04:54:54;100121.95;;;12.75;30.74
63339;BME280;47485;51.378;-1.342;2022-10-31T04:57:22;100117.56;;;12.54;30.58
63339;BME280;47485;51.378;-1.342;2022-10-31T04:59:49;100109.58;;;14.26;29.23
63339;BME280;47485;51.378;-1.342;2022-10-31T05:02:15;100109.93;;;12.49;30.67
63339;BME280;47485;51.378;-1.342;2022-10-31T05:04:42;100112.60;;;12.08;30.44
63339;BME280;47485;51.378;-1.342;2022-10-31T05:07:09;100110.99;;;13.58;30.57
63339;BME280;47485;51.378;-1.342;2022-10-31T05:09:36;100112.98;;;12.33;30.85
63339;BME280;47485;51.378;-1.342;2022-10-31T05:12:03;100110.42;;;10.96;31.91
63339;BME280;47485;51.378;-1.342;2022-10-31T05:14:29;100110.95;;;12.82;31.27
63339;BME280;47485;51.378;-1.342;2022-10-31T05:16:56;100111.18;;;11.43;31.57
63339;BME280;47485;51.378;-1.342;2022-10-31T05:19:23;100108.88;;;11.48;31.87
63339;BME280;47485;51.378;-1.342;2022-10-31T05:21:49;100107.97;;;12.11;30.21
63339;BME280;47485;51.378;-1.342;2022-10-31T05:24:16;100111.06;;;13.79;29.64
63339;BME280;47485;51.378;-1.342;2022-10-31T05:26:44;100108.47;;;11.47;30.44
63339;BME280;47485;51.378;-1.342;2022-10-31T05:29:11;100104.67;;;11.70;30.29
63339;BME280;47485;51.378;-1.342;2022-10-31T05:31:39;100101.09;;;13.16;29.63
63339;BME280;47485;51.378;-1.342;2022-10-31T05:34:06;100093.36;;;13.48;29.31
63339;BME280;47485;51.378;-1.342;2022-10-31T05:36:38;100090.12;;;12.80;30.14
63339;BME280;47485;51.378;-1.342;2022-10-31T05:39:05;100083.89;;;11.61;30.21
63339;BME280;47485;51.378;-1.342;2022-10-31T05:41:32;100086.72;;;13.48;29.06
63339;BME280;47485;51.378;-1.342;2022-10-31T05:43:58;100085.39;;;12.41;29.69
63339;BME280;47485;51.378;-1.342;2022-10-31T05:46:25;100084.31;;;10.86;30.15
63339;BME280;47485;51.378;-1.342;2022-10-31T05:48:52;100080.50;;;11.31;30.37
63339;BME280;47485;51.378;-1.342;2022-10-31T05:51:19;100079.96;;;13.03;29.49
63339;BME280;47485;51.378;-1.342;2022-10-31T05:53:46;100078.18;;;13.34;29.07
63339;BME280;47485;51.378;-1.342;2022-10-31T05:56:13;100082.23;;;12.35;28.80
63339;BME280;47485;51.378;-1.342;2022-10-31T05:58:39;100078.89;;;12.27;28.90
63339;BME280;47485;51.378;-1.342;2022-10-31T06:01:06;100080.30;;;13.22;28.90
63339;BME280;47485;51.378;-1.342;2022-10-31T06:03:33;100076.69;;;11.87;30.04
63339;BME280;47485;51.378;-1.342;2022-10-31T06:06:00;100074.90;;;12.56;30.05
63339;BME280;47485;51.378;-1.342;2022-10-31T06:08:26;100069.29;;;11.13;30.57
63339;BME280;47485;51.378;-1.342;2022-10-31T06:10:53;100067.66;;;10.86;31.24
63339;BME280;47485;51.378;-1.342;2022-10-31T06:13:20;100058.17;;;12.81;30.73
63339;BME280;47485;51.378;-1.342;2022-10-31T06:15:47;100059.78;;;10.73;32.90
63339;BME280;47485;51.378;-1.342;2022-10-31T06:18:14;100068.08;;;6.86;36.71
63339;BME280;47485;51.378;-1.342;2022-10-31T06:20:41;100058.06;;;10.89;34.19
63339;BME280;47485;51.378;-1.342;2022-10-31T06:23:07;100055.92;;;11.87;33.10
63339;BME280;47485;51.378;-1.342;2022-10-31T06:25:34;100053.27;;;10.71;33.47
63339;BME280;47485;51.378;-1.342;2022-10-31T06:28:01;100050.42;;;10.03;33.72
63339;BME280;47485;51.378;-1.342;2022-10-31T06:30:28;100048.65;;;9.48;34.24
63339;BME280;47485;51.378;-1.342;2022-10-31T06:33:02;100050.88;;;8.46;36.45
63339;BME280;47485;51.378;-1.342;2022-10-31T06:35:28;100046.81;;;9.73;36.05
63339;BME280;47485;51.378;-1.342;2022-10-31T06:37:55;100041.60;;;9.99;34.50
63339;BME280;47485;51.378;-1.342;2022-10-31T06:40:22;100048.61;;;9.41;35.60
63339;BME280;47485;51.378;-1.342;2022-10-31T06:42:56;100046.96;;;9.19;35.41
63339;BME280;47485;51.378;-1.342;2022-10-31T06:45:23;100043.91;;;9.68;35.25
63339;BME280;47485;51.378;-1.342;2022-10-31T06:47:51;100039.61;;;10.32;35.59
63339;BME280;47485;51.378;-1.342;2022-10-31T06:50:20;100035.40;;;12.20;34.11
63339;BME280;47485;51.378;-1.342;2022-10-31T06:52:51;100031.09;;;9.98;34.49
63339;BME280;47485;51.378;-1.342;2022-10-31T06:55:17;100031.36;;;13.36;32.94
63339;BME280;47485;51.378;-1.342;2022-10-31T06:57:49;100030.29;;;12.74;33.21
63339;BME280;47485;51.378;-1.342;2022-10-31T07:00:16;100028.60;;;10.80;34.30
63339;BME280;47485;51.378;-1.342;2022-10-31T07:02:43;100028.09;;;10.36;35.20
63339;BME280;47485;51.378;-1.342;2022-10-31T07:05:10;100026.75;;;9.96;35.85
63339;BME280;47485;51.378;-1.342;2022-10-31T07:07:37;100029.54;;;9.63;35.83
63339;BME280;47485;51.378;-1.342;2022-10-31T07:10:09;100027.49;;;9.72;37.21
63339;BME280;47485;51.378;-1.342;2022-10-31T07:12:37;100021.27;;;11.02;35.74
63339;BME280;47485;51.378;-1.342;2022-10-31T07:15:05;100015.13;;;10.17;35.52
63339;BME280;47485;51.378;-1.342;2022-10-31T07:17:32;100020.80;;;10.28;37.40
63339;BME280;47485;51.378;-1.342;2022-10-31T07:19:59;100031.59;;;8.24;38.88
63339;BME280;47485;51.378;-1.342;2022-10-31T07:22:32;100033.99;;;9.38;38.75
63339;BME280;47485;51.378;-1.342;2022-10-31T07:24:59;100040.87;;;8.58;38.05
63339;BME280;47485;51.378;-1.342;2022-10-31T07:27:26;100039.42;;;9.65;38.02
63339;BME280;47485;51.378;-1.342;2022-10-31T07:29:53;100043.43;;;8.81;40.37
63339;BME280;47485;51.378;-1.342;2022-10-31T07:32:20;100038.28;;;10.01;37.66
63339;BME280;47485;51.378;-1.342;2022-10-31T07:34:47;100040.54;;;10.27;37.98
63339;BME280;47485;51.378;-1.342;2022-10-31T07:37:14;100034.35;;;12.29;35.97
63339;BME280;47485;51.378;-1.342;2022-10-31T07:39:40;100043.25;;;8.89;40.28
63339;BME280;47485;51.378;-1.342;2022-10-31T07:42:07;100041.66;;;9.38;39.15
63339;BME280;47485;51.378;-1.342;2022-10-31T07:44:34;100042.61;;;11.84;38.40
63339;BME280;47485;51.378;-1.342;2022-10-31T07:47:00;100046.37;;;11.56;38.12
63339;BME280;47485;51.378;-1.342;2022-10-31T07:49:27;100041.69;;;12.29;36.88
63339;BME280;47485;51.378;-1.342;2022-10-31T07:51:55;100050.40;;;6.91;41.89
63339;BME280;47485;51.378;-1.342;2022-10-31T07:54:22;100052.23;;;8.59;39.88
63339;BME280;47485;51.378;-1.342;2022-10-31T07:56:49;100055.28;;;9.36;39.87
63339;BME280;47485;51.378;-1.342;2022-10-31T07:59:16;100053.96;;;11.08;38.15
63339;BME280;47485;51.378;-1.342;2022-10-31T08:01:42;100052.26;;;7.13;43.73
63339;BME280;47485;51.378;-1.342;2022-10-31T08:04:09;100052.41;;;8.19;41.31
63339;BME280;47485;51.378;-1.342;2022-10-31T08:06:36;100044.59;;;9.11;39.09
63339;BME280;47485;51.378;-1.342;2022-10-31T08:09:03;100049.38;;;8.25;40.85
63339;BME280;47485;51.378;-1.342;2022-10-31T08:11:29;100043.38;;;9.29;40.08
63339;BME280;47485;51.378;-1.342;2022-10-31T08:13:56;100036.25;;;10.41;37.78
63339;BME280;47485;51.378;-1.342;2022-10-31T08:16:23;100031.54;;;9.01;38.14
63339;BME280;47485;51.378;-1.342;2022-10-31T08:18:50;100037.85;;;11.79;36.74
63339;BME280;47485;51.378;-1.342;2022-10-31T08:21:17;100032.27;;;10.29;37.44
63339;BME280;47485;51.378;-1.342;2022-10-31T08:23:43;100032.44;;;10.78;37.97
63339;BME280;47485;51.378;-1.342;2022-10-31T08:26:10;100030.05;;;11.50;37.76
63339;BME280;47485;51.378;-1.342;2022-10-31T08:28:37;100036.44;;;6.25;41.69
63339;BME280;47485;51.378;-1.342;2022-10-31T08:31:04;100028.20;;;7.84;41.09
63339;BME280;47485;51.378;-1.342;2022-10-31T08:33:31;100024.31;;;9.72;40.93
63339;BME280;47485;51.378;-1.342;2022-10-31T08:35:58;100021.43;;;9.19;40.26
63339;BME280;47485;51.378;-1.342;2022-10-31T08:38:25;100019.29;;;9.30;39.89
63339;BME280;47485;51.378;-1.342;2022-10-31T08:40:52;100010.80;;;10.60;37.68
63339;BME280;47485;51.378;-1.342;2022-10-31T08:43:18;100010.39;;;8.06;40.03
63339;BME280;47485;51.378;-1.342;2022-10-31T08:45:48;100008.89;;;8.97;39.83
63339;BME280;47485;51.378;-1.342;2022-10-31T08:48:16;99998.26;;;11.37;38.59
63339;BME280;47485;51.378;-1.342;2022-10-31T08:50:44;99995.82;;;11.96;36.34
63339;BME280;47485;51.378;-1.342;2022-10-31T08:53:14;99998.65;;;10.18;38.14
63339;BME280;47485;51.378;-1.342;2022-10-31T08:55:42;100002.25;;;9.49;39.16
63339;BME280;47485;51.378;-1.342;2022-10-31T08:58:11;99992.70;;;11.45;37.61
63339;BME280;47485;51.378;-1.342;2022-10-31T09:00:39;99987.36;;;9.65;38.25
63339;BME280;47485;51.378;-1.342;2022-10-31T09:03:10;99985.59;;;10.04;37.94
63339;BME280;47485;51.378;-1.342;2022-10-31T09:05:37;99985.92;;;9.50;39.20
63339;BME280;47485;51.378;-1.342;2022-10-31T09:08:05;99982.63;;;10.08;40.04
63339;BME280;47485;51.378;-1.342;2022-10-31T09:10:34;99973.02;;;10.75;37.91
63339;BME280;47485;51.378;-1.342;2022-10-31T09:13:04;99971.31;;;10.36;38.62
63339;BME280;47485;51.378;-1.342;2022-10-31T09:15:30;99968.01;;;11.51;36.65
63339;BME280;47485;51.378;-1.342;2022-10-31T09:17:57;99967.79;;;8.36;40.24
63339;BME280;47485;51.378;-1.342;2022-10-31T09:20:24;99965.65;;;9.41;39.46
63339;BME280;47485;51.378;-1.342;2022-10-31T09:22:56;99972.24;;;7.89;42.06
63339;BME280;47485;51.378;-1.342;2022-10-31T09:25:23;99968.87;;;10.19;40.31
63339;BME280;47485;51.378;-1.342;2022-10-31T09:27:49;99961.56;;;9.80;38.79
63339;BME280;47485;51.378;-1.342;2022-10-31T09:30:18;99963.62;;;7.11;42.67
63339;BME280;47485;51.378;-1.342;2022-10-31T09:32:45;99956.53;;;9.83;39.52
63339;BME280;47485;51.378;-1.342;2022-10-31T09:35:12;99958.77;;;8.28;39.23
63339;BME280;47485;51.378;-1.342;2022-10-31T09:37:39;99952.49;;;11.90;36.45
63339;BME280;47485;51.378;-1.342;2022-10-31T09:40:06;99946.54;;;11.64;36.98
63339;BME280;47485;51.378;-1.342;2022-10-31T09:42:44;99950.59;;;9.97;37.81
63339;BME280;47485;51.378;-1.342;2022-10-31T09:45:18;99943.74;;;11.02;37.85
63339;BME280;47485;51.378;-1.342;2022-10-31T09:47:57;99938.93;;;9.16;38.95
63339;BME280;47485;51.378;-1.342;2022-10-31T09:50:29;99930.56;;;11.94;36.86
63339;BME280;47485;51.378;-1.342;2022-10-31T09:53:01;99929.47;;;10.64;39.39
63339;BME280;47485;51.378;-1.342;2022-10-31T09:55:36;99927.13;;;10.90;35.47
63339;BME280;47485;51.378;-1.342;2022-10-31T09:58:04;99930.17;;;7.47;42.25
63339;BME280;47485;51.378;-1.342;2022-10-31T10:00:31;99930.43;;;9.38;40.35
63339;BME280;47485;51.378;-1.342;2022-10-31T10:03:02;99922.44;;;10.61;39.26
63339;BME280;47485;51.378;-1.342;2022-10-31T10:05:38;99924.23;;;9.85;39.42
63339;BME280;47485;51.378;-1.342;2022-10-31T10:08:12;99919.53;;;9.95;40.31
63339;BME280;47485;51.378;-1.342;2022-10-31T10:10:48;99915.90;;;10.21;37.98
63339;BME280;47485;51.378;-1.342;2022-10-31T10:13:32;99918.03;;;9.78;39.62
63339;BME280;47485;51.378;-1.342;2022-10-31T10:16:12;99921.83;;;4.85;45.28
63339;BME280;47485;51.378;-1.342;2022-10-31T10:18:50;99915.51;;;7.66;42.52
63339;BME280;47485;51.378;-1.342;2022-10-31T10:21:29;99907.52;;;9.90;39.69
63339;BME280;47485;51.378;-1.342;2022-10-31T10:24:08;99900.30;;;12.41;36.68
63339;BME280;47485;51.378;-1.342;2022-10-31T10:26:40;99897.80;;;9.38;39.03
63339;BME280;47485;51.378;-1.342;2022-10-31T10:29:20;99896.24;;;11.55;36.29
63339;BME280;47485;51.378;-1.342;2022-10-31T10:31:49;99897.94;;;7.82;38.45
63339;BME280;47485;51.378;-1.342;2022-10-31T10:34:20;99893.49;;;10.41;37.46
63339;BME280;47485;51.378;-1.342;2022-10-31T10:36:53;99893.60;;;9.59;38.55
63339;BME280;47485;51.378;-1.342;2022-10-31T10:39:24;99886.45;;;8.89;37.80
63339;BME280;47485;51.378;-1.342;2022-10-31T10:41:51;99887.76;;;12.85;34.58
63339;BME280;47485;51.378;-1.342;2022-10-31T10:44:18;99889.16;;;9.11;37.75
63339;BME280;47485;51.378;-1.342;2022-10-31T10:46:51;99889.33;;;9.46;37.21
63339;BME280;47485;51.378;-1.342;2022-10-31T10:49:19;99888.12;;;8.66;39.19
63339;BME280;47485;51.378;-1.342;2022-10-31T10:51:56;99878.99;;;9.73;37.02
63339;BME280;47485;51.378;-1.342;2022-10-31T10:54:39;99868.98;;;8.32;39.11
63339;BME280;47485;51.378;-1.342;2022-10-31T10:57:20;99866.04;;;8.93;38.01
63339;BME280;47485;51.378;-1.342;2022-10-31T10:59:48;99865.02;;;9.07;38.53
63339;BME280;47485;51.378;-1.342;2022-10-31T11:02:18;99857.81;;;11.36;36.12
63339;BME280;47485;51.378;-1.342;2022-10-31T11:04:48;99854.99;;;10.70;37.02
63339;BME280;47485;51.378;-1.342;2022-10-31T11:07:16;99853.74;;;8.99;37.93
63339;BME280;47485;51.378;-1.342;2022-10-31T11:09:43;99851.16;;;10.38;36.83
63339;BME280;47485;51.378;-1.342;2022-10-31T11:12:15;99852.70;;;9.35;37.95
63339;BME280;47485;51.378;-1.342;2022-10-31T11:14:45;99847.70;;;9.21;37.76
63339;BME280;47485;51.378;-1.342;2022-10-31T11:17:24;99841.77;;;11.93;35.92
63339;BME280;47485;51.378;-1.342;2022-10-31T11:20:00;99849.75;;;11.78;35.22
63339;BME280;47485;51.378;-1.342;2022-10-31T11:22:27;99842.65;;;7.75;39.08
63339;BME280;47485;51.378;-1.342;2022-10-31T11:24:53;99836.57;;;10.19;36.89
63339;BME280;47485;51.378;-1.342;2022-10-31T11:27:23;99836.96;;;11.60;36.12
63339;BME280;47485;51.378;-1.342;2022-10-31T11:29:51;99832.67;;;8.86;39.04
63339;BME280;47485;51.378;-1.342;2022-10-31T11:32:20;99829.13;;;10.30;37.65
63339;BME280;47485;51.378;-1.342;2022-10-31T11:34:50;99835.58;;;10.07;37.23
63339;BME280;47485;51.378;-1.342;2022-10-31T11:37:21;99826.13;;;10.71;38.09
63339;BME280;47485;51.378;-1.342;2022-10-31T11:39:52;99818.20;;;7.36;39.63
63339;BME280;47485;51.378;-1.342;2022-10-31T11:42:22;99810.09;;;7.75;40.23
63339;BME280;47485;51.378;-1.342;2022-10-31T11:44:51;99804.56;;;8.39;39.96
63339;BME280;47485;51.378;-1.342;2022-10-31T11:47:25;99794.28;;;8.30;38.82
63339;BME280;47485;51.378;-1.342;2022-10-31T11:49:52;99795.36;;;7.04;40.31
63339;BME280;47485;51.378;-1.342;2022-10-31T11:52:23;99783.09;;;9.20;37.68
63339;BME280;47485;51.378;-1.342;2022-10-31T11:54:54;99771.25;;;11.87;35.35
63339;BME280;47485;51.378;-1.342;2022-10-31T11:57:24;99765.56;;;10.46;36.56
63339;BME280;47485;51.378;-1.342;2022-10-31T11:59:52;99761.86;;;10.08;37.19
63339;BME280;47485;51.378;-1.342;2022-10-31T12:02:21;99762.86;;;10.10;36.67
63339;BME280;47485;51.378;-1.342;2022-10-31T12:04:51;99754.17;;;11.24;35.04
63339;BME280;47485;51.378;-1.342;2022-10-31T12:07:22;99747.58;;;10.23;34.56
63339;BME280;47485;51.378;-1.342;2022-10-31T12:09:49;99736.94;;;9.33;36.57
63339;BME280;47485;51.378;-1.342;2022-10-31T12:12:32;99735.25;;;9.60;35.45
63339;BME280;47485;51.378;-1.342;2022-10-31T12:15:09;99734.89;;;8.13;37.21
63339;BME280;47485;51.378;-1.342;2022-10-31T12:17:44;99729.75;;;10.62;34.12
63339;BME280;47485;51.378;-1.342;2022-10-31T12:20:24;99726.27;;;8.73;36.96
63339;BME280;47485;51.378;-1.342;2022-10-31T12:23:00;99724.81;;;8.19;37.07
63339;BME280;47485;51.378;-1.342;2022-10-31T12:25:37;99720.60;;;9.16;36.90
63339;BME280;47485;51.378;-1.342;2022-10-31T12:28:25;99710.79;;;12.13;33.83
63339;BME280;47485;51.378;-1.342;2022-10-31T12:31:09;99707.80;;;9.78;35.35
63339;BME280;47485;51.378;-1.342;2022-10-31T12:33:49;99701.76;;;8.48;36.79
63339;BME280;47485;51.378;-1.342;2022-10-31T12:36:30;99698.23;;;11.39;34.27
63339;BME280;47485;51.378;-1.342;2022-10-31T12:39:12;99685.36;;;11.56;32.42
63339;BME280;47485;51.378;-1.342;2022-10-31T12:41:52;99673.33;;;12.74;32.23
63339;BME280;47485;51.378;-1.342;2022-10-31T12:44:33;99664.79;;;13.13;31.41
63339;BME280;47485;51.378;-1.342;2022-10-31T12:47:20;99654.46;;;13.50;30.68
63339;BME280;47485;51.378;-1.342;2022-10-31T12:49:56;99646.28;;;11.01;32.35
63339;BME280;47485;51.378;-1.342;2022-10-31T12:52:35;99640.35;;;10.34;32.85
63339;BME280;47485;51.378;-1.342;2022-10-31T12:55:20;99632.71;;;13.57;30.62
63339;BME280;47485;51.378;-1.342;2022-10-31T12:57:54;99627.72;;;12.12;30.72
63339;BME280;47485;51.378;-1.342;2022-10-31T13:00:24;99626.75;;;10.08;34.10